sensor_id;sensor_type;location;lat;lon;timestamp;pressure;altitude;pressure_sealevel;temperature;humidity
65800;BME280;52544;48.116;11.660;2023-06-22T00:01:49;95693.50;;;21.60;100.00
65800;BME280;52544;48.116;11.660;2023-06-22T00:04:14;95672.06;;;21.45;100.00
65800;BME280;52544;48.116;11.660;2023-06-22T00:06:40;95667.09;;;21.49;100.00
65800;BME280;52544;48.116;11.660;2023-06-22T00:09:05;95657.72;;;21.38;100.00
65800;BME280;52544;48.116;11.660;2023-06-22T00:11:33;95661.00;;;21.34;100.00
65800;BME280;52544;48.116;11.660;2023-06-22T00:13:59;95663.81;;;21.26;100.00
65800;BME280;52544;48.116;11.660;2023-06-22T00:16:25;95666.38;;;21.12;100.00
65800;BME280;52544;48.116;11.660;2023-06-22T00:18:50;95681.75;;;21.18;100.00
65800;BME280;52544;48.116;11.660;2023-06-22T00:21:16;95683.22;;;21.21;100.00
65800;BME280;52544;48.116;11.660;2023-06-22T00:23:41;95680.97;;;21.25;100.00
65800;BME280;52544;48.116;11.660;2023-06-22T00:26:07;95679.47;;;21.15;100.00
65800;BME280;52544;48.116;11.660;2023-06-22T00:28:32;95677.53;;;21.09;100.00
65800;BME280;52544;48.116;11.660;2023-06-22T00:30:58;95676.25;;;21.05;100.00
65800;BME280;52544;48.116;11.660;2023-06-22T00:33:23;95675.56;;;20.96;100.00
65800;BME280;52544;48.116;11.660;2023-06-22T00:35:48;95674.16;;;21.01;100.00
65800;BME280;52544;48.116;11.660;2023-06-22T00:38:17;95671.13;;;20.89;100.00
65800;BME280;52544;48.116;11.660;2023-06-22T00:40:43;95673.44;;;20.92;100.00
65800;BME280;52544;48.116;11.660;2023-06-22T00:43:08;95661.41;;;20.88;100.00
65800;BME280;52544;48.116;11.660;2023-06-22T00:45:34;95665.13;;;20.87;100.00
65800;BME280;52544;48.116;11.660;2023-06-22T00:48:00;95681.28;;;20.87;100.00
65800;BME280;52544;48.116;11.660;2023-06-22T00:50:30;95672.94;;;20.82;100.00
65800;BME280;52544;48.116;11.660;2023-06-22T00:53:00;95665.06;;;20.80;100.00
65800;BME280;52544;48.116;11.660;2023-06-22T00:55:26;95665.88;;;20.81;100.00
65800;BME280;52544;48.116;11.660;2023-06-22T00:57:52;95668.19;;;20.84;100.00
65800;BME280;52544;48.116;11.660;2023-06-22T01:00:23;95676.38;;;20.76;100.00
65800;BME280;52544;48.116;11.660;2023-06-22T01:02:51;95663.59;;;20.78;100.00
65800;BME280;52544;48.116;11.660;2023-06-22T01:05:21;95660.25;;;20.76;100.00
65800;BME280;52544;48.116;11.660;2023-06-22T01:10:54;95648.41;;;20.91;100.00
65800;BME280;52544;48.116;11.660;2023-06-22T01:16:12;95642.72;;;20.80;100.00
65800;BME280;52544;48.116;11.660;2023-06-22T01:18:41;95640.53;;;20.68;100.00
65800;BME280;52544;48.116;11.660;2023-06-22T01:21:12;95635.47;;;20.59;100.00
65800;BME280;52544;48.116;11.660;2023-06-22T01:23:51;95632.78;;;20.59;100.00
65800;BME280;52544;48.116;11.660;2023-06-22T01:26:28;95645.41;;;20.58;100.00
65800;BME280;52544;48.116;11.660;2023-06-22T01:28:57;95637.34;;;20.58;100.00
65800;BME280;52544;48.116;11.660;2023-06-22T01:31:26;95636.25;;;20.53;100.00
65800;BME280;52544;48.116;11.660;2023-06-22T01:33:57;95636.72;;;20.56;100.00
65800;BME280;52544;48.116;11.660;2023-06-22T01:36:25;95635.03;;;20.55;100.00
65800;BME280;52544;48.116;11.660;2023-06-22T01:38:52;95633.47;;;20.46;100.00
65800;BME280;52544;48.116;11.660;2023-06-22T01:41:19;95627.91;;;20.47;100.00
65800;BME280;52544;48.116;11.660;2023-06-22T01:43:45;95628.59;;;20.35;100.00
65800;BME280;52544;48.116;11.660;2023-06-22T01:46:11;95617.06;;;20.41;100.00
65800;BME280;52544;48.116;11.660;2023-06-22T01:48:38;95621.75;;;20.32;100.00
65800;BME280;52544;48.116;11.660;2023-06-22T01:51:04;95616.13;;;20.27;100.00
65800;BME280;52544;48.116;11.660;2023-06-22T01:53:30;95613.09;;;20.15;100.00
65800;BME280;52544;48.116;11.660;2023-06-22T01:55:56;95615.78;;;20.15;100.00
65800;BME280;52544;48.116;11.660;2023-06-22T01:58:25;95610.03;;;20.04;100.00
65800;BME280;52544;48.116;11.660;2023-06-22T02:01:12;95603.03;;;20.03;100.00
65800;BME280;52544;48.116;11.660;2023-06-22T02:03:44;95607.34;;;20.18;100.00
65800;BME280;52544;48.116;11.660;2023-06-22T02:06:16;95605.16;;;20.29;100.00
65800;BME280;52544;48.116;11.660;2023-06-22T02:08:56;95619.66;;;20.13;100.00
65800;BME280;52544;48.116;11.660;2023-06-22T02:11:22;95623.16;;;20.13;100.00
65800;BME280;52544;48.116;11.660;2023-06-22T02:13:51;95618.88;;;19.97;100.00
65800;BME280;52544;48.116;11.660;2023-06-22T02:16:17;95617.94;;;20.05;100.00
65800;BME280;52544;48.116;11.660;2023-06-22T02:18:50;95614.91;;;19.93;100.00
65800;BME280;52544;48.116;11.660;2023-06-22T02:21:16;95632.13;;;19.84;100.00
65800;BME280;52544;48.116;11.660;2023-06-22T02:23:42;95626.69;;;19.78;100.00
65800;BME280;52544;48.116;11.660;2023-06-22T02:26:07;95625.94;;;19.84;100.00
65800;BME280;52544;48.116;11.660;2023-06-22T02:28:33;95617.69;;;19.70;100.00
65800;BME280;52544;48.116;11.660;2023-06-22T02:30:58;95625.19;;;19.60;100.00
65800;BME280;52544;48.116;11.660;2023-06-22T02:33:23;95623.00;;;19.64;100.00
65800;BME280;52544;48.116;11.660;2023-06-22T02:35:49;95626.94;;;19.53;100.00
65800;BME280;52544;48.116;11.660;2023-06-22T02:38:15;95626.94;;;19.53;100.00
65800;BME280;52544;48.116;11.660;2023-06-22T02:40:40;95634.25;;;19.59;100.00
65800;BME280;52544;48.116;11.660;2023-06-22T02:43:06;95645.50;;;19.63;100.00
65800;BME280;52544;48.116;11.660;2023-06-22T02:45:31;95647.22;;;19.56;100.00
65800;BME280;52544;48.116;11.660;2023-06-22T02:47:57;95655.81;;;19.51;100.00
65800;BME280;52544;48.116;11.660;2023-06-22T02:50:23;95652.66;;;19.47;100.00
65800;BME280;52544;48.116;11.660;2023-06-22T02:52:48;95655.53;;;19.46;100.00
65800;BME280;52544;48.116;11.660;2023-06-22T02:55:14;95656.44;;;19.53;100.00
65800;BME280;52544;48.116;11.660;2023-06-22T02:57:39;95657.91;;;19.41;100.00
65800;BME280;52544;48.116;11.660;2023-06-22T03:00:09;95659.53;;;19.65;100.00
65800;BME280;52544;48.116;11.660;2023-06-22T03:02:43;95650.72;;;19.56;100.00
65800;BME280;52544;48.116;11.660;2023-06-22T03:05:09;95648.31;;;19.46;100.00
65800;BME280;52544;48.116;11.660;2023-06-22T03:07:41;95644.91;;;19.38;100.00
65800;BME280;52544;48.116;11.660;2023-06-22T03:10:11;95643.66;;;19.40;100.00
65800;BME280;52544;48.116;11.660;2023-06-22T03:12:38;95640.75;;;19.50;100.00
65800;BME280;52544;48.116;11.660;2023-06-22T03:15:08;95638.22;;;19.34;100.00
65800;BME280;52544;48.116;11.660;2023-06-22T03:17:34;95631.94;;;19.41;100.00
65800;BME280;52544;48.116;11.660;2023-06-22T03:20:01;95640.44;;;19.45;100.00
65800;BME280;52544;48.116;11.660;2023-06-22T03:22:26;95640.91;;;19.34;100.00
65800;BME280;52544;48.116;11.660;2023-06-22T03:24:52;95644.31;;;19.28;100.00
65800;BME280;52544;48.116;11.660;2023-06-22T03:27:17;95637.47;;;19.25;100.00
65800;BME280;52544;48.116;11.660;2023-06-22T03:29:42;95636.19;;;19.21;100.00
65800;BME280;52544;48.116;11.660;2023-06-22T03:32:08;95637.63;;;19.23;100.00
65800;BME280;52544;48.116;11.660;2023-06-22T03:34:34;95629.03;;;19.28;100.00
65800;BME280;52544;48.116;11.660;2023-06-22T03:37:01;95634.97;;;19.23;100.00
65800;BME280;52544;48.116;11.660;2023-06-22T03:39:26;95640.72;;;19.20;100.00
65800;BME280;52544;48.116;11.660;2023-06-22T03:41:52;95636.53;;;19.18;100.00
65800;BME280;52544;48.116;11.660;2023-06-22T03:44:17;95638.66;;;19.22;100.00
65800;BME280;52544;48.116;11.660;2023-06-22T03:46:43;95634.44;;;19.43;100.00
65800;BME280;52544;48.116;11.660;2023-06-22T03:49:08;95645.06;;;19.51;100.00
65800;BME280;52544;48.116;11.660;2023-06-22T03:51:33;95648.13;;;19.48;100.00
65800;BME280;52544;48.116;11.660;2023-06-22T03:53:59;95640.81;;;19.57;100.00
65800;BME280;52544;48.116;11.660;2023-06-22T03:56:24;95640.66;;;19.58;100.00
65800;BME280;52544;48.116;11.660;2023-06-22T03:58:50;95643.63;;;19.63;100.00
65800;BME280;52544;48.116;11.660;2023-06-22T04:01:16;95649.06;;;19.55;100.00
65800;BME280;52544;48.116;11.660;2023-06-22T04:03:42;95639.72;;;19.66;100.00
65800;BME280;52544;48.116;11.660;2023-06-22T04:06:08;95650.56;;;19.72;100.00
65800;BME280;52544;48.116;11.660;2023-06-22T04:08:33;95654.34;;;19.78;100.00
65800;BME280;52544;48.116;11.660;2023-06-22T04:10:59;95655.75;;;19.74;100.00
65800;BME280;52544;48.116;11.660;2023-06-22T04:13:24;95669.09;;;19.67;100.00
65800;BME280;52544;48.116;11.660;2023-06-22T04:15:50;95661.47;;;19.86;100.00
65800;BME280;52544;48.116;11.660;2023-06-22T04:18:15;95649.63;;;19.95;100.00
65800;BME280;52544;48.116;11.660;2023-06-22T04:20:40;95653.06;;;19.89;100.00
65800;BME280;52544;48.116;11.660;2023-06-22T04:23:06;95650.84;;;19.92;100.00
65800;BME280;52544;48.116;11.660;2023-06-22T04:25:31;95643.31;;;20.03;100.00
65800;BME280;52544;48.116;11.660;2023-06-22T04:27:56;95638.66;;;20.11;100.00
65800;BME280;52544;48.116;11.660;2023-06-22T04:30:22;95637.53;;;20.20;100.00
65800;BME280;52544;48.116;11.660;2023-06-22T04:32:47;95645.22;;;20.23;100.00
65800;BME280;52544;48.116;11.660;2023-06-22T04:35:23;95643.34;;;20.24;100.00
65800;BME280;52544;48.116;11.660;2023-06-22T04:37:49;95639.91;;;20.30;100.00
65800;BME280;52544;48.116;11.660;2023-06-22T04:40:15;95644.06;;;20.33;100.00
65800;BME280;52544;48.116;11.660;2023-06-22T04:42:41;95651.50;;;20.31;100.00
65800;BME280;52544;48.116;11.660;2023-06-22T04:45:19;95652.13;;;20.33;100.00
65800;BME280;52544;48.116;11.660;2023-06-22T04:47:44;95648.03;;;20.37;100.00
65800;BME280;52544;48.116;11.660;2023-06-22T04:50:11;95648.03;;;20.37;100.00
65800;BME280;52544;48.116;11.660;2023-06-22T04:52:37;95644.59;;;20.43;100.00
65800;BME280;52544;48.116;11.660;2023-06-22T04:55:03;95638.28;;;20.51;100.00
65800;BME280;52544;48.116;11.660;2023-06-22T04:57:29;95639.13;;;20.51;100.00
65800;BME280;52544;48.116;11.660;2023-06-22T05:00:00;95641.19;;;20.49;100.00
65800;BME280;52544;48.116;11.660;2023-06-22T05:02:38;95634.50;;;20.45;100.00
65800;BME280;52544;48.116;11.660;2023-06-22T05:05:04;95641.34;;;20.47;100.00
65800;BME280;52544;48.116;11.660;2023-06-22T05:07:35;95635.44;;;20.52;100.00
65800;BME280;52544;48.116;11.660;2023-06-22T05:10:04;95627.63;;;20.57;100.00
65800;BME280;52544;48.116;11.660;2023-06-22T05:12:30;95619.19;;;20.60;100.00
65800;BME280;52544;48.116;11.660;2023-06-22T05:14:56;95621.88;;;20.60;100.00
65800;BME280;52544;48.116;11.660;2023-06-22T05:17:21;95622.50;;;20.62;100.00
65800;BME280;52544;48.116;11.660;2023-06-22T05:19:47;95624.81;;;20.65;100.00
65800;BME280;52544;48.116;11.660;2023-06-22T05:22:15;95614.28;;;20.70;100.00
65800;BME280;52544;48.116;11.660;2023-06-22T05:24:41;95612.88;;;20.75;100.00
65800;BME280;52544;48.116;11.660;2023-06-22T05:27:08;95621.19;;;20.80;100.00
65800;BME280;52544;48.116;11.660;2023-06-22T05:29:33;95622.09;;;20.87;100.00
65800;BME280;52544;48.116;11.660;2023-06-22T05:31:58;95621.13;;;20.94;100.00
65800;BME280;52544;48.116;11.660;2023-06-22T05:34:24;95623.50;;;21.11;100.00
65800;BME280;52544;48.116;11.660;2023-06-22T05:36:49;95619.84;;;21.18;100.00
65800;BME280;52544;48.116;11.660;2023-06-22T05:39:15;95623.66;;;21.31;100.00
65800;BME280;52544;48.116;11.660;2023-06-22T05:41:40;95620.84;;;21.39;100.00
65800;BME280;52544;48.116;11.660;2023-06-22T05:44:06;95613.03;;;21.44;100.00
65800;BME280;52544;48.116;11.660;2023-06-22T05:46:31;95611.81;;;21.46;100.00
65800;BME280;52544;48.116;11.660;2023-06-22T05:48:58;95620.31;;;21.50;100.00
65800;BME280;52544;48.116;11.660;2023-06-22T05:51:23;95619.72;;;21.55;100.00
65800;BME280;52544;48.116;11.660;2023-06-22T05:53:49;95616.88;;;21.63;100.00
65800;BME280;52544;48.116;11.660;2023-06-22T05:56:15;95618.97;;;21.67;100.00
65800;BME280;52544;48.116;11.660;2023-06-22T05:58:41;95618.97;;;21.74;100.00
65800;BME280;52544;48.116;11.660;2023-06-22T06:01:06;95621.34;;;21.84;100.00
65800;BME280;52544;48.116;11.660;2023-06-22T06:03:32;95618.47;;;21.92;100.00
65800;BME280;52544;48.116;11.660;2023-06-22T06:05:57;95624.09;;;22.04;100.00
65800;BME280;52544;48.116;11.660;2023-06-22T06:08:23;95623.16;;;22.18;100.00
65800;BME280;52544;48.116;11.660;2023-06-22T06:10:48;95623.16;;;22.25;100.00
65800;BME280;52544;48.116;11.660;2023-06-22T06:13:14;95623.00;;;22.33;100.00
65800;BME280;52544;48.116;11.660;2023-06-22T06:15:39;95613.47;;;22.37;100.00
65800;BME280;52544;48.116;11.660;2023-06-22T06:18:05;95612.66;;;22.43;100.00
65800;BME280;52544;48.116;11.660;2023-06-22T06:20:32;95615.75;;;22.46;100.00
65800;BME280;52544;48.116;11.660;2023-06-22T06:22:57;95613.50;;;22.50;100.00
65800;BME280;52544;48.116;11.660;2023-06-22T06:25:23;95601.47;;;22.59;100.00
65800;BME280;52544;48.116;11.660;2023-06-22T06:27:51;95598.41;;;22.69;100.00
65800;BME280;52544;48.116;11.660;2023-06-22T06:30:17;95595.28;;;22.79;100.00
65800;BME280;52544;48.116;11.660;2023-06-22T06:32:44;95596.72;;;22.88;100.00
65800;BME280;52544;48.116;11.660;2023-06-22T06:35:11;95596.97;;;23.00;100.00
65800;BME280;52544;48.116;11.660;2023-06-22T06:37:39;95607.53;;;23.14;100.00
65800;BME280;52544;48.116;11.660;2023-06-22T06:40:09;95593.22;;;23.20;100.00
65800;BME280;52544;48.116;11.660;2023-06-22T06:42:39;95587.41;;;23.30;100.00
65800;BME280;52544;48.116;11.660;2023-06-22T06:45:08;95584.25;;;23.40;100.00
65800;BME280;52544;48.116;11.660;2023-06-22T06:47:33;95591.72;;;23.51;100.00
65800;BME280;52544;48.116;11.660;2023-06-22T06:49:59;95590.25;;;23.55;100.00
65800;BME280;52544;48.116;11.660;2023-06-22T06:52:25;95590.03;;;23.63;100.00
65800;BME280;52544;48.116;11.660;2023-06-22T06:54:50;95593.59;;;23.71;100.00
65800;BME280;52544;48.116;11.660;2023-06-22T06:57:18;95583.38;;;23.79;100.00
65800;BME280;52544;48.116;11.660;2023-06-22T06:59:43;95595.78;;;23.87;100.00
65800;BME280;52544;48.116;11.660;2023-06-22T07:02:09;95587.09;;;23.85;100.00
65800;BME280;52544;48.116;11.660;2023-06-22T07:04:34;95584.75;;;23.95;100.00
65800;BME280;52544;48.116;11.660;2023-06-22T07:07:01;95588.25;;;24.02;100.00
65800;BME280;52544;48.116;11.660;2023-06-22T07:09:27;95594.25;;;24.04;100.00
65800;BME280;52544;48.116;11.660;2023-06-22T07:11:52;95588.84;;;24.11;100.00
65800;BME280;52544;48.116;11.660;2023-06-22T07:14:18;95591.69;;;24.23;100.00
65800;BME280;52544;48.116;11.660;2023-06-22T07:16:43;95589.56;;;24.31;100.00
65800;BME280;52544;48.116;11.660;2023-06-22T07:19:11;95587.88;;;24.37;100.00
65800;BME280;52544;48.116;11.660;2023-06-22T07:21:36;95582.88;;;24.47;100.00
65800;BME280;52544;48.116;11.660;2023-06-22T07:24:02;95578.84;;;24.56;100.00
65800;BME280;52544;48.116;11.660;2023-06-22T07:26:27;95577.38;;;24.60;100.00
65800;BME280;52544;48.116;11.660;2023-06-22T07:28:53;95578.13;;;24.67;100.00
65800;BME280;52544;48.116;11.660;2023-06-22T07:31:18;95580.81;;;24.74;100.00
65800;BME280;52544;48.116;11.660;2023-06-22T07:33:44;95579.72;;;24.82;100.00
65800;BME280;52544;48.116;11.660;2023-06-22T07:36:09;95580.03;;;24.92;100.00
65800;BME280;52544;48.116;11.660;2023-06-22T07:38:34;95569.84;;;24.94;100.00
65800;BME280;52544;48.116;11.660;2023-06-22T07:41:01;95574.75;;;25.04;100.00
65800;BME280;52544;48.116;11.660;2023-06-22T07:43:26;95562.66;;;25.06;100.00
65800;BME280;52544;48.116;11.660;2023-06-22T07:45:51;95566.28;;;25.18;100.00
65800;BME280;52544;48.116;11.660;2023-06-22T07:48:20;95562.28;;;25.28;100.00
65800;BME280;52544;48.116;11.660;2023-06-22T07:50:46;95554.69;;;25.36;100.00
65800;BME280;52544;48.116;11.660;2023-06-22T07:53:11;95555.81;;;25.47;100.00
65800;BME280;52544;48.116;11.660;2023-06-22T07:55:36;95551.59;;;25.51;100.00
65800;BME280;52544;48.116;11.660;2023-06-22T07:58:02;95554.84;;;25.60;99.76
65800;BME280;52544;48.116;11.660;2023-06-22T08:00:27;95560.78;;;25.68;100.00
65800;BME280;52544;48.116;11.660;2023-06-22T08:02:53;95557.41;;;25.73;99.17
65800;BME280;52544;48.116;11.660;2023-06-22T08:05:18;95554.22;;;25.83;96.92
65800;BME280;52544;48.116;11.660;2023-06-22T08:07:43;95557.78;;;25.95;97.28
65800;BME280;52544;48.116;11.660;2023-06-22T08:10:12;95554.19;;;26.01;95.45
65800;BME280;52544;48.116;11.660;2023-06-22T08:12:41;95553.41;;;26.12;98.30
65800;BME280;52544;48.116;11.660;2023-06-22T08:15:07;95556.53;;;26.28;93.05
65800;BME280;52544;48.116;11.660;2023-06-22T08:17:33;95555.00;;;26.32;90.25
65800;BME280;52544;48.116;11.660;2023-06-22T08:19:58;95552.22;;;26.38;91.62
65800;BME280;52544;48.116;11.660;2023-06-22T08:22:24;95549.56;;;26.50;93.76
65800;BME280;52544;48.116;11.660;2023-06-22T08:24:49;95555.72;;;26.57;88.17
65800;BME280;52544;48.116;11.660;2023-06-22T08:27:15;95540.63;;;26.61;89.62
65800;BME280;52544;48.116;11.660;2023-06-22T08:29:42;95547.63;;;26.69;86.18
65800;BME280;52544;48.116;11.660;2023-06-22T08:32:11;95542.06;;;26.76;90.50
65800;BME280;52544;48.116;11.660;2023-06-22T08:34:36;95541.63;;;26.79;91.24
65800;BME280;52544;48.116;11.660;2023-06-22T08:37:02;95546.59;;;26.82;86.72
65800;BME280;52544;48.116;11.660;2023-06-22T08:39:32;95548.00;;;26.96;86.47
65800;BME280;52544;48.116;11.660;2023-06-22T08:41:57;95546.94;;;26.97;85.56
65800;BME280;52544;48.116;11.660;2023-06-22T08:44:22;95544.22;;;26.97;84.30
65800;BME280;52544;48.116;11.660;2023-06-22T08:46:48;95542.69;;;26.89;81.20
65800;BME280;52544;48.116;11.660;2023-06-22T08:49:13;95546.00;;;26.91;83.39
65800;BME280;52544;48.116;11.660;2023-06-22T08:51:39;95541.88;;;26.89;83.16
65800;BME280;52544;48.116;11.660;2023-06-22T08:54:04;95538.91;;;26.90;87.46
65800;BME280;52544;48.116;11.660;2023-06-22T08:56:30;95536.78;;;26.92;86.11
65800;BME280;52544;48.116;11.660;2023-06-22T08:58:55;95536.69;;;26.99;87.24
65800;BME280;52544;48.116;11.660;2023-06-22T09:01:21;95535.41;;;27.02;87.98
65800;BME280;52544;48.116;11.660;2023-06-22T09:03:47;95536.56;;;27.06;87.95
65800;BME280;52544;48.116;11.660;2023-06-22T09:06:20;95534.84;;;27.11;87.39
65800;BME280;52544;48.116;11.660;2023-06-22T09:08:47;95532.47;;;27.15;88.10
65800;BME280;52544;48.116;11.660;2023-06-22T09:11:12;95532.00;;;27.18;88.22
65800;BME280;52544;48.116;11.660;2023-06-22T09:13:38;95527.63;;;27.29;88.13
65800;BME280;52544;48.116;11.660;2023-06-22T09:16:03;95524.78;;;27.35;84.37
65800;BME280;52544;48.116;11.660;2023-06-22T09:18:29;95528.09;;;27.37;90.66
65800;BME280;52544;48.116;11.660;2023-06-22T09:20:54;95531.28;;;27.46;80.50
65800;BME280;52544;48.116;11.660;2023-06-22T09:23:20;95537.06;;;27.50;80.09
65800;BME280;52544;48.116;11.660;2023-06-22T09:25:45;95529.03;;;27.55;83.28
65800;BME280;52544;48.116;11.660;2023-06-22T09:28:13;95531.63;;;27.61;81.56
65800;BME280;52544;48.116;11.660;2023-06-22T09:30:39;95527.69;;;27.81;77.06
65800;BME280;52544;48.116;11.660;2023-06-22T09:33:04;95526.38;;;27.95;74.19
65800;BME280;52544;48.116;11.660;2023-06-22T09:35:30;95517.59;;;28.05;73.80
65800;BME280;52544;48.116;11.660;2023-06-22T09:37:55;95512.34;;;28.15;76.07
65800;BME280;52544;48.116;11.660;2023-06-22T09:40:20;95509.63;;;28.15;78.00
65800;BME280;52544;48.116;11.660;2023-06-22T09:42:46;95504.09;;;28.10;79.12
65800;BME280;52544;48.116;11.660;2023-06-22T09:45:11;95507.53;;;28.05;79.35
65800;BME280;52544;48.116;11.660;2023-06-22T09:47:37;95514.97;;;28.10;79.92
65800;BME280;52544;48.116;11.660;2023-06-22T09:50:03;95514.97;;;28.10;78.79
65800;BME280;52544;48.116;11.660;2023-06-22T09:52:28;95508.44;;;28.11;80.86
65800;BME280;52544;48.116;11.660;2023-06-22T09:54:53;95504.88;;;28.22;77.38
65800;BME280;52544;48.116;11.660;2023-06-22T09:57:19;95498.78;;;28.32;74.62
65800;BME280;52544;48.116;11.660;2023-06-22T09:59:44;95493.09;;;28.33;77.52
65800;BME280;52544;48.116;11.660;2023-06-22T10:02:10;95498.22;;;28.30;80.96
65800;BME280;52544;48.116;11.660;2023-06-22T10:04:35;95500.25;;;28.51;76.18
65800;BME280;52544;48.116;11.660;2023-06-22T10:07:02;95489.38;;;28.51;79.41
65800;BME280;52544;48.116;11.660;2023-06-22T10:09:27;95493.47;;;28.54;76.07
65800;BME280;52544;48.116;11.660;2023-06-22T10:11:53;95484.97;;;28.50;77.69
65800;BME280;52544;48.116;11.660;2023-06-22T10:14:18;95482.84;;;28.52;80.13
65800;BME280;52544;48.116;11.660;2023-06-22T10:16:44;95489.03;;;28.64;75.00
65800;BME280;52544;48.116;11.660;2023-06-22T10:19:10;95483.69;;;28.86;74.72
65800;BME280;52544;48.116;11.660;2023-06-22T10:21:35;95481.78;;;28.87;77.70
65800;BME280;52544;48.116;11.660;2023-06-22T10:24:01;95479.66;;;28.89;78.69
65800;BME280;52544;48.116;11.660;2023-06-22T10:26:34;95475.44;;;28.81;80.70
65800;BME280;52544;48.116;11.660;2023-06-22T10:29:00;95481.78;;;28.87;75.34
65800;BME280;52544;48.116;11.660;2023-06-22T10:31:26;95477.91;;;28.83;81.05
65800;BME280;52544;48.116;11.660;2023-06-22T10:33:53;95475.03;;;29.06;75.90
65800;BME280;52544;48.116;11.660;2023-06-22T10:36:19;95470.09;;;29.03;78.85
65800;BME280;52544;48.116;11.660;2023-06-22T10:38:44;95473.31;;;29.00;75.33
65800;BME280;52544;48.116;11.660;2023-06-22T10:41:10;95466.94;;;29.11;73.21
65800;BME280;52544;48.116;11.660;2023-06-22T10:43:36;95465.00;;;29.29;68.91
65800;BME280;52544;48.116;11.660;2023-06-22T10:46:01;95458.47;;;29.30;78.69
65800;BME280;52544;48.116;11.660;2023-06-22T10:48:27;95460.97;;;29.31;76.73
65800;BME280;52544;48.116;11.660;2023-06-22T10:50:52;95459.38;;;29.35;74.93
65800;BME280;52544;48.116;11.660;2023-06-22T10:53:18;95450.69;;;29.38;73.15
65800;BME280;52544;48.116;11.660;2023-06-22T10:55:44;95453.72;;;29.42;76.06
65800;BME280;52544;48.116;11.660;2023-06-22T10:58:09;95450.44;;;29.57;70.04
65800;BME280;52544;48.116;11.660;2023-06-22T11:00:35;95440.19;;;29.69;72.03
65800;BME280;52544;48.116;11.660;2023-06-22T11:03:00;95444.06;;;29.73;74.30
65800;BME280;52544;48.116;11.660;2023-06-22T11:05:25;95439.81;;;29.82;70.79
65800;BME280;52544;48.116;11.660;2023-06-22T11:07:51;95440.97;;;29.86;69.02
65800;BME280;52544;48.116;11.660;2023-06-22T11:10:16;95432.63;;;29.98;69.01
65800;BME280;52544;48.116;11.660;2023-06-22T11:12:42;95426.38;;;30.03;71.64
65800;BME280;52544;48.116;11.660;2023-06-22T11:15:08;95431.84;;;30.25;60.99
65800;BME280;52544;48.116;11.660;2023-06-22T11:17:34;95432.78;;;30.41;61.93
65800;BME280;52544;48.116;11.660;2023-06-22T11:19:59;95432.00;;;30.45;65.53
65800;BME280;52544;48.116;11.660;2023-06-22T11:22:25;95424.72;;;30.51;65.10
65800;BME280;52544;48.116;11.660;2023-06-22T11:24:51;95433.84;;;30.67;60.50
65800;BME280;52544;48.116;11.660;2023-06-22T11:27:16;95430.13;;;30.78;66.25
65800;BME280;52544;48.116;11.660;2023-06-22T11:29:42;95433.44;;;30.80;61.88
65800;BME280;52544;48.116;11.660;2023-06-22T11:32:07;95432.09;;;30.82;61.51
65800;BME280;52544;48.116;11.660;2023-06-22T11:34:33;95429.66;;;30.86;66.71
65800;BME280;52544;48.116;11.660;2023-06-22T11:36:58;95435.22;;;31.01;61.69
65800;BME280;52544;48.116;11.660;2023-06-22T11:39:24;95427.19;;;31.27;58.04
65800;BME280;52544;48.116;11.660;2023-06-22T11:41:49;95417.44;;;31.41;59.34
65800;BME280;52544;48.116;11.660;2023-06-22T11:44:15;95413.16;;;31.60;59.28
65800;BME280;52544;48.116;11.660;2023-06-22T11:46:40;95409.94;;;31.74;57.66
65800;BME280;52544;48.116;11.660;2023-06-22T11:49:05;95408.66;;;31.97;62.51
65800;BME280;52544;48.116;11.660;2023-06-22T11:51:31;95398.84;;;32.21;61.46
65800;BME280;52544;48.116;11.660;2023-06-22T11:53:57;95393.38;;;32.31;55.58
65800;BME280;52544;48.116;11.660;2023-06-22T11:56:22;95390.41;;;32.48;55.17
65800;BME280;52544;48.116;11.660;2023-06-22T11:58:47;95404.09;;;32.58;55.16
65800;BME280;52544;48.116;11.660;2023-06-22T12:01:13;95409.03;;;32.51;53.27
65800;BME280;52544;48.116;11.660;2023-06-22T12:03:40;95404.09;;;32.58;54.01
65800;BME280;52544;48.116;11.660;2023-06-22T12:06:06;95405.19;;;32.57;54.14
65800;BME280;52544;48.116;11.660;2023-06-22T12:08:31;95403.00;;;32.65;53.75
65800;BME280;52544;48.116;11.660;2023-06-22T12:10:57;95398.59;;;32.74;55.27
65800;BME280;52544;48.116;11.660;2023-06-22T12:13:22;95388.75;;;32.73;53.97
65800;BME280;52544;48.116;11.660;2023-06-22T12:15:47;95384.91;;;32.79;54.53
65800;BME280;52544;48.116;11.660;2023-06-22T12:18:13;95381.38;;;32.68;54.15
65800;BME280;52544;48.116;11.660;2023-06-22T12:20:42;95381.09;;;32.54;54.17
65800;BME280;52544;48.116;11.660;2023-06-22T12:23:07;95371.22;;;32.43;55.06
65800;BME280;52544;48.116;11.660;2023-06-22T12:25:32;95378.91;;;32.46;55.67
65800;BME280;52544;48.116;11.660;2023-06-22T12:27:58;95367.41;;;32.59;54.21
65800;BME280;52544;48.116;11.660;2023-06-22T12:30:23;95363.00;;;32.84;55.43
65800;BME280;52544;48.116;11.660;2023-06-22T12:32:49;95360.50;;;33.03;55.76
65800;BME280;52544;48.116;11.660;2023-06-22T12:35:15;95364.31;;;33.22;52.76
65800;BME280;52544;48.116;11.660;2023-06-22T12:37:41;95356.31;;;33.26;50.64
65800;BME280;52544;48.116;11.660;2023-06-22T12:40:08;95344.19;;;33.47;54.20
65800;BME280;52544;48.116;11.660;2023-06-22T12:42:33;95340.34;;;33.53;50.21
65800;BME280;52544;48.116;11.660;2023-06-22T12:44:58;95339.56;;;33.48;48.81